Time;durP1;ratioP1;P1;durP2;ratioP2;P2;SDS_P1;SDS_P2;PMS_P1;PMS_P2;Temp;Humidity;BMP_temperature;BMP_pressure;BME280_temperature;BME280_humidity;BME280_pressure;Samples;Min_cycle;Max_cycle;Signal;HPM_P1;HPM_P2
2021/11/12 00:03:46;;;;;;;29.83;19.88;;;;;;;;;;5022592;28;20245;-79
2021/11/12 00:14:26;;;;;;;26.75;17.90;;;;;;;;;;5020056;28;20220;-79
2021/11/12 00:16:55;;;;;;;23.63;18.75;;;;;;;;;;5021648;28;20209;-78
2021/11/12 00:19:21;;;;;;;28.33;18.80;;;;;;;;;;5019837;28;20255;-78
2021/11/12 00:21:47;;;;;;;25.63;17.50;;;;;;;;;;5023268;28;20213;-78
2021/11/12 00:24:13;;;;;;;26.95;18.35;;;;;;;;;;5020192;28;20206;-78
2021/11/12 00:26:39;;;;;;;26.20;17.88;;;;;;;;;;5037320;28;20178;-79
2021/11/12 00:29:07;;;;;;;27.33;18.05;;;;;;;;;;5019388;28;20186;-79
2021/11/12 00:31:57;;;;;;;20.77;16.17;;;;;;;;;;5017440;28;20201;-79
2021/11/12 00:37:14;;;;;;;23.70;16.77;;;;;;;;;;5022937;28;20205;-79
2021/11/12 00:42:23;;;;;;;21.48;16.00;;;;;;;;;;5021564;28;20194;-79
2021/11/12 00:47:27;;;;;;;24.92;15.82;;;;;;;;;;5018559;28;20226;-79
2021/11/12 00:55:17;;;;;;;22.35;18.00;;;;;;;;;;5023707;28;20710;-78
2021/11/12 00:57:44;;;;;;;21.48;15.18;;;;;;;;;;5020236;28;20179;-78
2021/11/12 01:00:12;;;;;;;22.55;15.68;;;;;;;;;;5022325;28;20181;-78
2021/11/12 01:02:38;;;;;;;27.35;18.48;;;;;;;;;;5023421;28;20171;-78
2021/11/12 01:05:05;;;;;;;22.73;15.00;;;;;;;;;;5023781;28;20265;-78
2021/11/12 01:07:31;;;;;;;24.45;16.10;;;;;;;;;;5021966;28;20205;-78
2021/11/12 01:09:57;;;;;;;22.42;16.35;;;;;;;;;;5021390;28;20268;-78
2021/11/12 01:12:23;;;;;;;27.88;16.50;;;;;;;;;;5015952;28;20206;-78
2021/11/12 01:14:50;;;;;;;26.58;17.55;;;;;;;;;;5040071;28;20206;-79
2021/11/12 01:17:16;;;;;;;25.05;15.50;;;;;;;;;;5019348;28;20565;-78
2021/11/12 01:19:42;;;;;;;26.38;16.38;;;;;;;;;;5021595;28;20179;-78
2021/11/12 01:22:08;;;;;;;23.27;16.70;;;;;;;;;;5018108;28;20186;-78
2021/11/12 01:24:35;;;;;;;21.10;15.65;;;;;;;;;;5017263;28;20189;-78
2021/11/12 01:27:02;;;;;;;20.70;15.63;;;;;;;;;;5023408;28;20553;-79
2021/11/12 01:29:28;;;;;;;21.55;15.48;;;;;;;;;;5016159;28;20187;-78
2021/11/12 01:31:54;;;;;;;22.50;15.40;;;;;;;;;;5021125;28;20190;-78
2021/11/12 01:34:20;;;;;;;25.50;15.27;;;;;;;;;;5021403;28;20217;-79
2021/11/12 01:36:47;;;;;;;23.30;14.80;;;;;;;;;;5020195;28;20261;-78
2021/11/12 01:39:18;;;;;;;20.80;14.55;;;;;;;;;;5016088;28;20178;-78
2021/11/12 01:41:49;;;;;;;19.48;14.57;;;;;;;;;;5014517;28;20167;-79
2021/11/12 01:44:17;;;;;;;21.05;15.18;;;;;;;;;;5018751;28;20214;-78
2021/11/12 01:49:27;;;;;;;18.67;14.10;;;;;;;;;;5012492;28;20186;-78
2021/11/12 01:57:22;;;;;;;21.60;15.07;;;;;;;;;;5022700;28;20185;-78
2021/11/12 01:59:46;;;;;;;25.17;14.77;;;;;;;;;;5022826;28;20181;-78
2021/11/12 02:02:12;;;;;;;22.85;15.57;;;;;;;;;;5017869;28;20205;-78
2021/11/12 02:04:38;;;;;;;22.63;15.93;;;;;;;;;;5018981;28;20198;-79
2021/11/12 02:07:04;;;;;;;21.23;14.75;;;;;;;;;;5018977;28;20278;-78
2021/11/12 02:09:31;;;;;;;21.33;14.50;;;;;;;;;;5016800;28;20202;-78
2021/11/12 02:12:02;;;;;;;20.88;14.25;;;;;;;;;;5019570;28;20617;-78
2021/11/12 02:14:29;;;;;;;25.35;16.08;;;;;;;;;;5017502;28;20209;-78
2021/11/12 02:17:04;;;;;;;21.05;15.48;;;;;;;;;;5016670;28;20179;-79
2021/11/12 02:19:30;;;;;;;22.73;15.85;;;;;;;;;;5009996;28;20185;-78
2021/11/12 02:22:06;;;;;;;23.75;14.30;;;;;;;;;;5019946;28;20183;-79
2021/11/12 02:24:34;;;;;;;20.20;14.27;;;;;;;;;;5017509;28;20189;-79
2021/11/12 02:27:00;;;;;;;21.10;14.13;;;;;;;;;;5018719;28;20178;-78
2021/11/12 02:29:27;;;;;;;20.35;14.80;;;;;;;;;;5015753;28;20183;-78
2021/11/12 02:31:54;;;;;;;22.90;15.07;;;;;;;;;;5017322;28;20186;-78
2021/11/12 02:34:20;;;;;;;20.38;14.25;;;;;;;;;;5022027;28;20210;-78
2021/11/12 02:36:46;;;;;;;17.67;14.00;;;;;;;;;;5020483;28;20195;-78
2021/11/12 02:39:13;;;;;;;22.75;15.18;;;;;;;;;;5018258;28;20194;-78
2021/11/12 02:41:39;;;;;;;25.15;15.75;;;;;;;;;;5031645;28;20170;-78
2021/11/12 02:44:06;;;;;;;22.42;14.75;;;;;;;;;;5016778;28;20215;-78
2021/11/12 02:46:33;;;;;;;23.73;15.07;;;;;;;;;;5016890;28;20262;-78
2021/11/12 02:48:59;;;;;;;23.13;14.52;;;;;;;;;;5022600;28;20182;-78
2021/11/12 02:51:28;;;;;;;20.67;14.43;;;;;;;;;;5014729;28;20452;-78
2021/11/12 02:53:55;;;;;;;19.88;14.52;;;;;;;;;;5016421;28;20194;-78
2021/11/12 02:56:32;;;;;;;18.90;14.65;;;;;;;;;;5017459;28;20193;-78
2021/11/12 02:59:03;;;;;;;24.90;14.88;;;;;;;;;;5016330;28;20262;-78
2021/11/12 03:01:30;;;;;;;22.63;15.07;;;;;;;;;;5016203;28;20206;-78
2021/11/12 03:03:56;;;;;;;24.65;15.05;;;;;;;;;;5031552;28;20190;-78
2021/11/12 03:06:23;;;;;;;20.55;14.65;;;;;;;;;;5016630;28;20674;-78
2021/11/12 03:08:49;;;;;;;18.55;13.90;;;;;;;;;;5017934;28;20205;-78
2021/11/12 03:11:16;;;;;;;20.08;13.90;;;;;;;;;;5022224;28;20194;-78
2021/11/12 03:13:44;;;;;;;18.50;13.25;;;;;;;;;;5022194;28;20190;-78
2021/11/12 03:16:11;;;;;;;19.67;13.75;;;;;;;;;;5025064;28;20312;-78
2021/11/12 03:18:37;;;;;;;22.13;15.15;;;;;;;;;;5024055;28;20182;-79
2021/11/12 03:21:04;;;;;;;22.63;14.48;;;;;;;;;;5040288;28;20731;-79
2021/11/12 03:23:38;;;;;;;18.92;13.77;;;;;;;;;;5019950;28;20200;-79
2021/11/12 03:56:27;;;;;;;22.23;15.82;;;;;;;;;;5019899;28;20198;-78
2021/11/12 04:03:53;;;;;;;23.58;15.20;;;;;;;;;;5025089;28;20665;-79
2021/11/12 04:17:33;;;;;;;23.90;15.20;;;;;;;;;;4980259;28;21223;-79
2021/11/12 04:41:31;;;;;;;24.45;14.88;;;;;;;;;;4982723;28;20286;-79
2021/11/12 05:14:06;;;;;;;21.45;15.13;;;;;;;;;;4980006;28;20534;-78
2021/11/12 05:44:16;;;;;;;22.73;15.13;;;;;;;;;;5018560;28;20229;-79
2021/11/12 05:57:14;;;;;;;17.58;12.32;;;;;;;;;;5020471;28;20243;-79
2021/11/12 05:59:40;;;;;;;22.23;15.25;;;;;;;;;;5018198;28;20171;-78
2021/11/12 06:02:06;;;;;;;23.52;15.52;;;;;;;;;;5017759;28;20187;-79
2021/11/12 06:04:33;;;;;;;20.63;14.98;;;;;;;;;;5021200;28;20266;-79
2021/11/12 06:06:59;;;;;;;20.90;15.82;;;;;;;;;;5020555;28;20183;-78
2021/11/12 06:09:25;;;;;;;19.90;14.68;;;;;;;;;;5016739;28;20186;-79
2021/11/12 06:11:54;;;;;;;24.38;15.82;;;;;;;;;;5039557;28;20197;-79
2021/11/12 06:14:25;;;;;;;23.27;14.85;;;;;;;;;;5018786;28;20746;-79
2021/11/12 06:16:51;;;;;;;18.92;13.88;;;;;;;;;;5017359;28;20190;-78
2021/11/12 06:19:17;;;;;;;17.85;13.65;;;;;;;;;;5018403;28;20260;-78
2021/11/12 06:21:44;;;;;;;19.13;14.30;;;;;;;;;;5032748;28;20174;-78
2021/11/12 06:24:10;;;;;;;21.65;13.75;;;;;;;;;;5019126;28;20275;-79
2021/11/12 06:26:37;;;;;;;21.25;14.55;;;;;;;;;;5020983;28;20217;-79
2021/11/12 06:29:03;;;;;;;18.27;14.75;;;;;;;;;;5019598;28;20194;-79
2021/11/12 06:31:29;;;;;;;21.88;14.32;;;;;;;;;;5016931;28;20187;-79
2021/11/12 06:33:55;;;;;;;18.38;13.85;;;;;;;;;;5019714;28;20187;-79
2021/11/12 06:36:23;;;;;;;20.58;15.75;;;;;;;;;;5017942;28;20232;-79
2021/11/12 06:38:50;;;;;;;19.55;14.38;;;;;;;;;;5039049;28;20178;-78
2021/11/12 06:41:27;;;;;;;19.83;13.85;;;;;;;;;;5016373;28;20179;-78
2021/11/12 06:43:59;;;;;;;19.50;14.70;;;;;;;;;;5015328;28;20250;-78
2021/11/12 06:49:23;;;;;;;19.63;12.82;;;;;;;;;;5022085;28;20213;-79
2021/11/12 06:51:50;;;;;;;17.42;12.60;;;;;;;;;;5022016;28;20197;-79
2021/11/12 06:54:16;;;;;;;19.83;14.15;;;;;;;;;;5020905;28;20208;-79
2021/11/12 06:56:42;;;;;;;18.10;12.10;;;;;;;;;;5018425;28;20179;-80
2021/11/12 06:59:08;;;;;;;18.02;12.10;;;;;;;;;;5018903;28;20182;-79
2021/11/12 07:01:34;;;;;;;18.90;12.30;;;;;;;;;;5020596;28;20183;-79
2021/11/12 07:04:00;;;;;;;15.68;12.27;;;;;;;;;;5019655;28;20580;-79
2021/11/12 07:06:26;;;;;;;21.05;14.38;;;;;;;;;;5016353;28;20183;-79
2021/11/12 07:08:53;;;;;;;19.40;13.70;;;;;;;;;;5020367;28;20193;-79
2021/11/12 07:11:21;;;;;;;20.05;13.52;;;;;;;;;;5019256;28;20236;-79
2021/11/12 07:13:47;;;;;;;17.52;13.05;;;;;;;;;;5018081;28;20175;-78
2021/11/12 07:16:14;;;;;;;15.68;13.20;;;;;;;;;;5022150;28;20185;-78
2021/11/12 07:18:40;;;;;;;19.08;13.90;;;;;;;;;;5035755;28;20182;-79
2021/11/12 07:21:06;;;;;;;17.60;11.55;;;;;;;;;;5018106;28;20576;-79
2021/11/12 07:23:32;;;;;;;18.67;12.70;;;;;;;;;;5016993;28;20227;-79
2021/11/12 07:25:59;;;;;;;16.38;11.70;;;;;;;;;;5020646;28;20183;-79
2021/11/12 07:28:26;;;;;;;18.38;13.90;;;;;;;;;;5016427;28;20197;-79
2021/11/12 07:30:53;;;;;;;18.55;13.52;;;;;;;;;;5034508;28;20182;-80
2021/11/12 07:33:19;;;;;;;22.67;13.85;;;;;;;;;;5017495;28;20175;-79
2021/11/12 07:38:15;;;;;;;18.77;12.57;;;;;;;;;;5016663;28;20191;-79
2021/11/12 07:46:38;;;;;;;15.50;11.40;;;;;;;;;;5022280;28;20191;-79
2021/11/12 07:48:42;;;;;;;16.65;12.13;;;;;;;;;;5010164;28;20206;-79
2021/11/12 07:51:09;;;;;;;17.38;11.80;;;;;;;;;;5034698;28;20184;-80
2021/11/12 07:53:35;;;;;;;16.55;12.13;;;;;;;;;;5021757;28;20186;-79
2021/11/12 07:56:01;;;;;;;15.68;12.10;;;;;;;;;;5020640;28;20206;-79
2021/11/12 07:58:28;;;;;;;21.90;11.68;;;;;;;;;;5024201;28;20186;-80
2021/11/12 08:00:54;;;;;;;14.30;11.45;;;;;;;;;;5020720;28;20679;-81
2021/11/12 08:03:20;;;;;;;16.27;12.23;;;;;;;;;;5021233;28;20187;-80
2021/11/12 08:05:51;;;;;;;18.38;12.70;;;;;;;;;;5036996;28;20186;-81
2021/11/12 08:08:19;;;;;;;15.45;11.10;;;;;;;;;;5020399;28;20188;-80
2021/11/12 08:10:58;;;;;;;18.13;12.30;;;;;;;;;;5019146;28;20206;-81
2021/11/12 08:13:50;;;;;;;18.35;11.80;;;;;;;;;;5051964;28;20186;-81
2021/11/12 08:23:53;;;;;;;17.17;11.02;;;;;;;;;;5024794;28;20189;-81
2021/11/12 08:34:30;;;;;;;17.15;10.80;;;;;;;;;;5018252;28;20214;-81
2021/11/12 08:37:02;;;;;;;21.73;11.60;;;;;;;;;;5019588;28;20187;-81
2021/11/12 08:39:44;;;;;;;21.27;11.35;;;;;;;;;;5015601;28;20186;-81
2021/11/12 08:42:17;;;;;;;17.15;11.77;;;;;;;;;;5026912;28;20178;-81
2021/11/12 08:44:48;;;;;;;16.27;12.82;;;;;;;;;;5006144;28;20616;-81
2021/11/12 08:47:26;;;;;;;17.80;10.40;;;;;;;;;;5018170;28;20234;-81
2021/11/12 08:49:54;;;;;;;16.27;10.98;;;;;;;;;;5019570;28;20206;-81
2021/11/12 08:52:23;;;;;;;21.13;11.57;;;;;;;;;;5019662;28;20194;-81
2021/11/12 08:54:49;;;;;;;18.88;12.13;;;;;;;;;;5002633;28;20207;-80
2021/11/12 08:57:16;;;;;;;13.38;11.45;;;;;;;;;;5021504;28;20193;-80
2021/11/12 08:59:47;;;;;;;15.50;12.50;;;;;;;;;;5021960;28;20190;-80
2021/11/12 09:02:15;;;;;;;15.25;11.40;;;;;;;;;;5020767;28;20187;-80
2021/11/12 09:04:43;;;;;;;18.10;13.57;;;;;;;;;;5017476;28;20201;-81
2021/11/12 09:07:11;;;;;;;15.07;11.88;;;;;;;;;;5021855;28;20248;-80
2021/11/12 09:09:37;;;;;;;15.73;11.20;;;;;;;;;;5038382;28;20186;-81
2021/11/12 09:12:05;;;;;;;13.75;11.05;;;;;;;;;;5020383;28;20167;-80
2021/11/12 09:14:31;;;;;;;20.58;11.00;;;;;;;;;;5022809;28;20210;-81
2021/11/12 09:17:04;;;;;;;17.30;11.68;;;;;;;;;;5023465;28;20181;-80
2021/11/12 09:19:31;;;;;;;17.85;11.57;;;;;;;;;;5021976;28;20438;-81
2021/11/12 09:21:57;;;;;;;17.88;12.25;;;;;;;;;;5023636;28;20217;-80
2021/11/12 09:24:23;;;;;;;15.35;11.82;;;;;;;;;;5017096;28;20186;-80
2021/11/12 09:26:49;;;;;;;21.60;12.77;;;;;;;;;;5040507;28;20178;-80
2021/11/12 09:29:15;;;;;;;16.27;13.20;;;;;;;;;;5018698;28;20217;-80
2021/11/12 09:31:42;;;;;;;15.90;12.18;;;;;;;;;;5017244;28;20190;-80
2021/11/12 09:34:11;;;;;;;20.23;13.77;;;;;;;;;;5021384;28;20210;-80
2021/11/12 09:36:37;;;;;;;16.10;12.60;;;;;;;;;;5022203;28;20245;-80
2021/11/12 09:39:05;;;;;;;19.05;12.23;;;;;;;;;;5039358;28;20174;-80
2021/11/12 09:41:31;;;;;;;24.27;14.18;;;;;;;;;;5019436;28;20197;-80
2021/11/12 09:43:57;;;;;;;18.63;13.15;;;;;;;;;;5020091;28;20189;-80
2021/11/12 09:46:24;;;;;;;19.08;14.07;;;;;;;;;;5017926;28;20225;-80
2021/11/12 09:48:50;;;;;;;21.95;15.13;;;;;;;;;;5019390;28;20183;-80
2021/11/12 09:51:16;;;;;;;20.63;13.30;;;;;;;;;;5017306;28;20179;-80
2021/11/12 09:53:42;;;;;;;28.95;15.05;;;;;;;;;;5018657;28;20186;-80
2021/11/12 09:56:09;;;;;;;19.38;13.75;;;;;;;;;;5019467;28;20206;-80
2021/11/12 09:58:36;;;;;;;20.27;15.23;;;;;;;;;;5019436;28;20182;-80
2021/11/12 10:01:02;;;;;;;21.02;14.75;;;;;;;;;;5034186;28;20190;-80
2021/11/12 10:03:43;;;;;;;23.10;14.15;;;;;;;;;;5016728;28;20178;-79
2021/11/12 10:06:26;;;;;;;17.80;12.77;;;;;;;;;;5015266;28;20807;-79
2021/11/12 10:08:53;;;;;;;17.95;14.10;;;;;;;;;;5033844;28;20201;-80
2021/11/12 10:11:22;;;;;;;15.30;12.75;;;;;;;;;;5018534;28;20185;-80
2021/11/12 10:13:49;;;;;;;17.35;12.68;;;;;;;;;;5016091;28;20187;-80
2021/11/12 10:18:59;;;;;;;17.20;11.15;;;;;;;;;;5018182;28;20186;-80
2021/11/12 10:21:39;;;;;;;14.85;11.70;;;;;;;;;;5017608;28;20237;-80
2021/11/12 10:24:28;;;;;;;15.00;10.73;;;;;;;;;;5018614;28;20209;-80
2021/11/12 10:26:59;;;;;;;14.60;11.07;;;;;;;;;;5019528;28;20174;-81
2021/11/12 10:29:27;;;;;;;12.90;10.25;;;;;;;;;;5018767;28;20190;-81
2021/11/12 10:31:56;;;;;;;14.68;10.68;;;;;;;;;;5019509;28;20203;-80
2021/11/12 10:34:24;;;;;;;12.88;10.50;;;;;;;;;;5011980;28;20702;-80
2021/11/12 10:36:51;;;;;;;10.05;9.02;;;;;;;;;;5016987;28;20189;-80
2021/11/12 10:39:21;;;;;;;12.27;9.70;;;;;;;;;;5017587;28;20667;-80
2021/11/12 10:41:47;;;;;;;10.25;8.02;;;;;;;;;;5018206;28;20229;-81
2021/11/12 10:44:14;;;;;;;13.27;9.95;;;;;;;;;;5017503;28;20190;-80
2021/11/12 10:46:44;;;;;;;10.95;8.70;;;;;;;;;;5038051;28;20313;-81
2021/11/12 10:49:23;;;;;;;12.30;8.68;;;;;;;;;;5022161;28;20229;-81
2021/11/12 10:51:50;;;;;;;11.88;8.93;;;;;;;;;;5017860;28;20621;-80
2021/11/12 10:54:39;;;;;;;22.15;9.48;;;;;;;;;;5016435;28;20194;-79
2021/11/12 10:57:06;;;;;;;11.35;8.77;;;;;;;;;;5022806;28;20281;-81
2021/11/12 10:59:34;;;;;;;11.45;8.00;;;;;;;;;;5018620;28;20186;-80
2021/11/12 11:02:00;;;;;;;11.02;9.20;;;;;;;;;;5018569;28;20179;-80
2021/11/12 11:04:27;;;;;;;11.20;8.80;;;;;;;;;;5035823;28;20185;-80
2021/11/12 11:06:53;;;;;;;9.82;8.63;;;;;;;;;;5019070;28;20201;-81
2021/11/12 11:09:37;;;;;;;9.63;8.07;;;;;;;;;;5016144;28;20182;-80
2021/11/12 11:12:04;;;;;;;8.45;7.47;;;;;;;;;;5019234;28;20175;-80
2021/11/12 11:14:31;;;;;;;8.60;7.70;;;;;;;;;;5037082;28;20290;-81
2021/11/12 11:17:17;;;;;;;12.75;8.60;;;;;;;;;;5017318;28;20190;-80
2021/11/12 11:19:43;;;;;;;9.30;8.27;;;;;;;;;;5017235;28;20198;-82
2021/11/12 11:22:12;;;;;;;12.25;8.30;;;;;;;;;;5017648;28;20182;-81
2021/11/12 11:24:38;;;;;;;11.00;8.10;;;;;;;;;;5017384;28;20190;-82
2021/11/12 11:27:04;;;;;;;11.15;8.20;;;;;;;;;;5021772;28;20179;-81
2021/11/12 11:29:31;;;;;;;10.20;8.60;;;;;;;;;;5022307;28;20286;-82
2021/11/12 11:32:01;;;;;;;11.25;8.50;;;;;;;;;;5019715;28;20183;-80
2021/11/12 11:34:27;;;;;;;10.07;8.18;;;;;;;;;;5024447;28;20218;-81
2021/11/12 11:36:59;;;;;;;9.13;7.70;;;;;;;;;;5019782;28;20187;-81
2021/11/12 11:39:25;;;;;;;8.57;7.68;;;;;;;;;;5018986;28;20174;-77
2021/11/12 11:41:52;;;;;;;8.95;7.78;;;;;;;;;;5052864;28;20163;-81
2021/11/12 11:44:21;;;;;;;7.80;7.00;;;;;;;;;;5020704;28;20186;-80
2021/11/12 11:46:52;;;;;;;7.68;6.45;;;;;;;;;;5020042;28;20230;-80
2021/11/12 11:49:20;;;;;;;7.88;7.00;;;;;;;;;;5020221;28;20218;-81
2021/11/12 11:51:51;;;;;;;10.40;6.65;;;;;;;;;;5036063;28;20187;-80
2021/11/12 11:54:18;;;;;;;6.97;6.28;;;;;;;;;;5018988;28;20678;-80
2021/11/12 11:56:49;;;;;;;8.88;6.32;;;;;;;;;;5021010;28;20162;-80
2021/11/12 11:59:23;;;;;;;6.65;5.90;;;;;;;;;;5021840;28;20214;-80
2021/11/12 12:01:53;;;;;;;6.70;5.18;;;;;;;;;;5020001;28;20175;-81
2021/11/12 12:04:19;;;;;;;5.15;4.65;;;;;;;;;;5024672;28;20214;-80
2021/11/12 12:07:01;;;;;;;5.97;5.37;;;;;;;;;;5019374;28;20186;-80
2021/11/12 12:09:49;;;;;;;5.13;4.70;;;;;;;;;;5020145;28;20425;-79
2021/11/12 12:12:30;;;;;;;8.10;5.45;;;;;;;;;;5040242;28;20182;-79
2021/11/12 12:15:05;;;;;;;6.75;5.43;;;;;;;;;;5047625;28;20236;-80
2021/11/12 12:17:32;;;;;;;6.80;4.80;;;;;;;;;;5020122;28;20178;-80
2021/11/12 12:20:33;;;;;;;5.80;5.18;;;;;;;;;;5018116;28;20179;-80
2021/11/12 13:22:56;;;;;;;4.38;3.97;;;;;;;;;;5014835;28;20190;-81
2021/11/12 13:25:34;;;;;;;15.70;5.28;;;;;;;;;;5019203;28;20213;-82
2021/11/12 13:28:19;;;;;;;5.00;4.55;;;;;;;;;;5034280;28;20197;-81
2021/11/12 13:30:47;;;;;;;5.18;4.78;;;;;;;;;;5022837;28;20185;-81
2021/11/12 13:33:43;;;;;;;9.48;4.60;;;;;;;;;;5048866;28;20267;-81
2021/11/12 13:36:24;;;;;;;6.55;4.60;;;;;;;;;;5012703;28;20234;-80
2021/11/12 13:38:50;;;;;;;4.40;3.92;;;;;;;;;;5018603;28;20696;-80
2021/11/12 13:41:17;;;;;;;6.18;3.70;;;;;;;;;;5020270;28;20278;-80
2021/11/12 13:43:44;;;;;;;4.93;4.30;;;;;;;;;;5019261;28;20194;-79
2021/11/12 13:46:11;;;;;;;7.65;4.63;;;;;;;;;;5019286;28;20244;-80
2021/11/12 13:49:03;;;;;;;3.83;3.35;;;;;;;;;;5017146;28;20214;-80
2021/11/12 13:51:31;;;;;;;9.10;4.20;;;;;;;;;;5021346;28;20182;-80
2021/11/12 13:53:57;;;;;;;4.47;4.00;;;;;;;;;;5018790;28;20181;-79
2021/11/12 13:56:24;;;;;;;5.07;4.32;;;;;;;;;;5038721;28;20692;-79
2021/11/12 13:59:03;;;;;;;4.50;3.95;;;;;;;;;;5019671;28;20183;-79
2021/11/12 14:01:29;;;;;;;4.50;4.10;;;;;;;;;;5011940;28;20193;-80
2021/11/12 14:03:55;;;;;;;4.50;4.10;;;;;;;;;;5020139;28;20378;-82
2021/11/12 14:06:32;;;;;;;5.07;3.95;;;;;;;;;;5017509;28;20412;-81
2021/11/12 14:09:02;;;;;;;5.00;4.50;;;;;;;;;;5017527;28;20170;-80
2021/11/12 14:11:30;;;;;;;5.47;4.97;;;;;;;;;;5015769;28;20229;-80
2021/11/12 14:13:58;;;;;;;4.97;4.47;;;;;;;;;;5015871;28;20192;-80
2021/11/12 14:16:32;;;;;;;5.20;4.70;;;;;;;;;;5027263;28;20186;-80
2021/11/12 14:21:39;;;;;;;5.57;4.72;;;;;;;;;;5018147;28;20202;-80
2021/11/12 14:29:47;;;;;;;6.22;5.05;;;;;;;;;;5017940;28;20562;-81
2021/11/12 14:35:01;;;;;;;5.55;5.05;;;;;;;;;;5018311;28;20210;-81
2021/11/12 14:37:53;;;;;;;6.28;5.70;;;;;;;;;;5019082;28;20275;-80
2021/11/12 14:40:35;;;;;;;6.25;5.05;;;;;;;;;;5021922;28;20499;-80
2021/11/12 14:43:11;;;;;;;5.28;4.65;;;;;;;;;;5016455;28;20184;-80
2021/11/12 14:45:40;;;;;;;4.72;4.32;;;;;;;;;;5016910;28;20182;-80
2021/11/12 14:56:04;;;;;;;5.95;5.32;;;;;;;;;;5017630;28;20212;-81
2021/11/12 14:58:30;;;;;;;6.55;5.40;;;;;;;;;;5020049;28;20182;-81
2021/11/12 15:01:11;;;;;;;6.47;5.32;;;;;;;;;;5019218;28;20310;-80
2021/11/12 15:03:41;;;;;;;6.75;6.15;;;;;;;;;;5015720;28;20216;-80
2021/11/12 15:06:07;;;;;;;6.10;5.13;;;;;;;;;;5026686;28;20171;-80
2021/11/12 15:08:40;;;;;;;7.15;4.90;;;;;;;;;;5022642;28;20202;-80
2021/11/12 15:11:06;;;;;;;5.63;4.75;;;;;;;;;;5022185;28;20178;-80
2021/11/12 15:13:34;;;;;;;7.65;5.90;;;;;;;;;;5039649;28;20182;-80
2021/11/12 15:16:06;;;;;;;5.85;5.10;;;;;;;;;;5019515;28;20579;-80
2021/11/12 15:18:32;;;;;;;9.57;5.93;;;;;;;;;;5019499;28;20417;-80
2021/11/12 15:21:01;;;;;;;7.82;5.63;;;;;;;;;;5021626;28;20163;-80
2021/11/12 15:23:41;;;;;;;6.63;5.13;;;;;;;;;;5022612;28;20217;-81
2021/11/12 15:28:49;;;;;;;7.83;5.13;;;;;;;;;;5023938;28;20194;-81
2021/11/12 15:33:45;;;;;;;6.97;6.28;;;;;;;;;;5020927;28;20186;-80
2021/11/12 15:36:14;;;;;;;7.85;6.00;;;;;;;;;;5023685;28;20298;-80
2021/11/12 15:38:52;;;;;;;5.45;4.72;;;;;;;;;;5019989;28;20202;-80
2021/11/12 15:46:25;;;;;;;6.78;5.80;;;;;;;;;;5025424;28;20214;-80
2021/11/12 15:48:51;;;;;;;10.75;6.47;;;;;;;;;;5022009;28;20190;-80
2021/11/12 15:56:46;;;;;;;12.02;6.50;;;;;;;;;;5020986;28;20687;-80
2021/11/12 16:10:12;;;;;;;9.05;5.68;;;;;;;;;;5000649;28;20196;-80
2021/11/12 16:13:14;;;;;;;7.95;6.47;;;;;;;;;;5001558;28;20184;-81
2021/11/12 16:15:46;;;;;;;8.02;6.93;;;;;;;;;;4998414;28;20297;-80
2021/11/12 16:18:26;;;;;;;9.88;6.75;;;;;;;;;;5001103;28;20196;-80
2021/11/12 16:23:49;;;;;;;9.30;7.53;;;;;;;;;;5000549;28;20265;-80
2021/11/12 16:26:17;;;;;;;10.52;7.18;;;;;;;;;;5000426;28;20187;-80
2021/11/12 16:28:56;;;;;;;13.07;8.25;;;;;;;;;;5000331;28;20182;-80
2021/11/12 16:31:23;;;;;;;12.52;9.13;;;;;;;;;;4986313;28;20186;-80
2021/11/12 16:33:50;;;;;;;13.85;8.35;;;;;;;;;;5000298;28;20200;-81
2021/11/12 16:36:16;;;;;;;11.50;10.10;;;;;;;;;;5003590;28;20203;-81
2021/11/12 16:38:43;;;;;;;11.87;9.17;;;;;;;;;;4997629;28;20187;-80
2021/11/12 16:44:14;;;;;;;14.98;8.95;;;;;;;;;;4992354;28;20251;-81
2021/11/12 16:57:12;;;;;;;13.05;9.73;;;;;;;;;;5024121;28;20201;-79
2021/11/12 16:59:48;;;;;;;13.25;11.85;;;;;;;;;;5019009;28;20652;-80
2021/11/12 17:12:47;;;;;;;18.73;13.88;;;;;;;;;;5021934;28;20628;-80
2021/11/12 17:20:38;;;;;;;15.02;10.98;;;;;;;;;;5018700;28;20198;-80
2021/11/12 17:47:26;;;;;;;12.48;10.13;;;;;;;;;;5019944;28;20241;-81
2021/11/12 17:50:05;;;;;;;10.93;9.30;;;;;;;;;;5018748;28;20186;-81
2021/11/12 18:03:34;;;;;;;14.32;11.65;;;;;;;;;;5018335;28;20273;-81
2021/11/12 18:06:28;;;;;;;16.77;11.35;;;;;;;;;;5019820;28;20188;-80
2021/11/12 18:14:33;;;;;;;14.30;11.07;;;;;;;;;;5015295;28;20681;-82
2021/11/12 18:17:37;;;;;;;15.80;10.70;;;;;;;;;;5017706;28;20186;-81
2021/11/12 21:48:05;;;;;;;16.40;13.25;;;;;;;;;;5068944;28;20169;-80
2021/11/12 21:50:33;;;;;;;17.70;13.52;;;;;;;;;;5071182;28;20223;-80
2021/11/12 21:52:59;;;;;;;21.80;13.10;;;;;;;;;;5072268;28;20200;-81
2021/11/12 21:55:25;;;;;;;19.60;13.48;;;;;;;;;;5068930;28;20193;-80
2021/11/12 21:57:51;;;;;;;19.17;11.65;;;;;;;;;;5066493;28;20193;-81
2021/11/12 22:00:17;;;;;;;17.77;12.15;;;;;;;;;;5069364;28;20177;-80
2021/11/12 22:02:45;;;;;;;23.67;14.30;;;;;;;;;;5070348;28;20248;-80
2021/11/12 22:05:11;;;;;;;19.15;12.50;;;;;;;;;;5068797;28;20191;-80
2021/11/12 22:07:37;;;;;;;19.27;13.07;;;;;;;;;;5076009;28;20219;-81
2021/11/12 22:10:04;;;;;;;17.50;12.30;;;;;;;;;;5076564;28;20205;-81
2021/11/12 22:12:30;;;;;;;20.23;12.63;;;;;;;;;;5072868;28;20176;-80
2021/11/12 22:14:56;;;;;;;19.92;12.85;;;;;;;;;;5074425;28;20283;-80
2021/11/12 22:17:22;;;;;;;21.53;13.40;;;;;;;;;;5070066;28;20184;-81
2021/11/12 22:19:48;;;;;;;21.77;13.38;;;;;;;;;;5073213;28;20455;-82
2021/11/12 22:22:14;;;;;;;21.58;14.20;;;;;;;;;;5068870;28;20196;-82
2021/11/12 22:24:40;;;;;;;20.40;12.80;;;;;;;;;;5053979;28;20580;-80
2021/11/12 22:27:06;;;;;;;17.98;13.63;;;;;;;;;;5060745;28;20184;-82
2021/11/12 22:29:32;;;;;;;19.80;14.18;;;;;;;;;;5059890;28;20204;-81
2021/11/12 22:32:00;;;;;;;22.15;15.60;;;;;;;;;;5063759;28;20212;-80
2021/11/12 22:34:26;;;;;;;21.23;14.02;;;;;;;;;;5061122;28;20186;-80
2021/11/12 22:36:52;;;;;;;24.60;16.20;;;;;;;;;;5053115;28;20239;-80
2021/11/12 22:39:18;;;;;;;23.10;15.13;;;;;;;;;;5063393;28;20454;-80
2021/11/12 22:41:46;;;;;;;22.45;13.43;;;;;;;;;;5072996;28;20168;-80
2021/11/12 22:44:12;;;;;;;22.35;15.85;;;;;;;;;;5063681;28;20197;-80
2021/11/12 22:46:39;;;;;;;24.58;13.07;;;;;;;;;;5060482;28;20269;-80
2021/11/12 22:49:06;;;;;;;20.83;14.43;;;;;;;;;;5057027;28;20196;-81
2021/11/12 22:51:33;;;;;;;20.45;13.32;;;;;;;;;;5060887;28;20212;-80
2021/11/12 22:54:00;;;;;;;22.55;14.50;;;;;;;;;;5052004;28;20177;-80
2021/11/12 22:56:27;;;;;;;17.42;12.20;;;;;;;;;;5061095;28;20188;-80
2021/11/12 22:58:53;;;;;;;20.77;14.02;;;;;;;;;;5063417;28;20181;-79
2021/11/12 23:01:20;;;;;;;19.38;12.75;;;;;;;;;;5059599;28;20193;-80
2021/11/12 23:03:47;;;;;;;19.65;13.25;;;;;;;;;;5051882;28;20190;-80
2021/11/12 23:06:13;;;;;;;24.52;14.70;;;;;;;;;;5059242;28;20180;-80
2021/11/12 23:08:39;;;;;;;22.13;13.15;;;;;;;;;;5055227;28;20192;-80
2021/11/12 23:11:05;;;;;;;20.05;13.05;;;;;;;;;;5055183;28;20282;-80
2021/11/12 23:13:32;;;;;;;19.80;14.07;;;;;;;;;;5058412;28;20181;-80
2021/11/12 23:15:59;;;;;;;24.05;13.65;;;;;;;;;;5050213;28;20184;-81
2021/11/12 23:18:26;;;;;;;18.83;13.90;;;;;;;;;;5056786;28;20239;-80
2021/11/12 23:20:52;;;;;;;20.65;12.65;;;;;;;;;;5057377;28;20200;-81
2021/11/12 23:23:18;;;;;;;23.65;13.38;;;;;;;;;;5062741;28;20200;-80
2021/11/12 23:25:45;;;;;;;18.20;11.88;;;;;;;;;;5062818;28;20196;-80
2021/11/12 23:28:11;;;;;;;21.67;11.15;;;;;;;;;;5059586;28;20206;-81
2021/11/12 23:30:37;;;;;;;21.77;13.60;;;;;;;;;;5060059;28;20304;-79
2021/11/12 23:33:03;;;;;;;19.27;12.30;;;;;;;;;;5067506;28;20180;-79
2021/11/12 23:35:29;;;;;;;18.00;12.27;;;;;;;;;;5057595;28;20177;-79
2021/11/12 23:37:55;;;;;;;15.23;10.52;;;;;;;;;;5057624;28;20230;-80
2021/11/12 23:40:21;;;;;;;20.15;12.65;;;;;;;;;;5059618;28;20200;-79
2021/11/12 23:42:50;;;;;;;21.42;11.20;;;;;;;;;;5061366;28;20249;-80
2021/11/12 23:45:16;;;;;;;16.45;10.82;;;;;;;;;;5063121;28;20207;-79
2021/11/12 23:47:43;;;;;;;17.15;11.38;;;;;;;;;;5051456;28;20550;-81
2021/11/12 23:50:09;;;;;;;16.02;10.98;;;;;;;;;;5055104;28;20186;-79
2021/11/12 23:52:35;;;;;;;19.70;10.65;;;;;;;;;;5061044;28;20173;-81
2021/11/12 23:55:03;;;;;;;21.40;11.38;;;;;;;;;;5053236;28;20182;-80
2021/11/12 23:57:29;;;;;;;16.25;10.10;;;;;;;;;;5056544;28;20165;-81
2021/11/12 23:59:55;;;;;;;17.25;9.80;;;;;;;;;;5061694;28;20200;-81
